createdAt,value
2016-11-12T00:00:46.408Z,1026.35
2016-11-12T00:01:47.020Z,1026.31
2016-11-12T00:02:47.651Z,1026.3
2016-11-12T00:03:48.276Z,1026.3
2016-11-12T00:04:48.892Z,1026.31
2016-11-12T00:05:49.514Z,1026.28
2016-11-12T00:06:50.141Z,1026.27
2016-11-12T00:07:50.762Z,1026.26
2016-11-12T00:08:51.374Z,1026.25
2016-11-12T00:09:51.976Z,1026.3
2016-11-12T00:10:52.591Z,1026.29
2016-11-12T00:11:53.210Z,1026.25
2016-11-12T00:12:53.821Z,1026.28
2016-11-12T00:13:54.442Z,1026.27
2016-11-12T00:14:55.057Z,1026.26
2016-11-12T00:15:55.670Z,1026.26
2016-11-12T00:16:56.283Z,1026.24
2016-11-12T00:17:56.921Z,1026.24
2016-11-12T00:18:57.529Z,1026.25
2016-11-12T00:19:58.144Z,1026.3
2016-11-12T00:20:58.748Z,1026.28
2016-11-12T00:21:59.370Z,1026.29
2016-11-12T00:23:00.008Z,1026.31
2016-11-12T00:24:00.610Z,1026.37
2016-11-12T00:25:01.232Z,1026.36
2016-11-12T00:26:01.852Z,1026.35
2016-11-12T00:27:02.472Z,1026.4
2016-11-12T00:28:03.080Z,1026.38
2016-11-12T00:29:03.706Z,1026.41
2016-11-12T00:30:04.453Z,1026.46
2016-11-12T00:31:05.078Z,1026.39
2016-11-12T00:32:05.697Z,1026.45
2016-11-12T00:33:06.317Z,1026.43
2016-11-12T00:34:06.926Z,1026.41
2016-11-12T00:35:07.533Z,1026.4
2016-11-12T00:36:08.156Z,1026.46
2016-11-12T00:37:08.779Z,1026.45
2016-11-12T00:38:09.401Z,1026.43
2016-11-12T00:39:10.032Z,1026.45
2016-11-12T00:40:10.701Z,1026.42
2016-11-12T00:41:11.330Z,1026.43
2016-11-12T00:42:11.938Z,1026.44
2016-11-12T00:43:12.547Z,1026.39
2016-11-12T00:44:13.184Z,1026.42
2016-11-12T00:45:13.796Z,1026.39
2016-11-12T00:46:14.475Z,1026.44
2016-11-12T00:47:15.088Z,1026.44
2016-11-12T00:48:15.708Z,1026.47
2016-11-12T00:49:16.393Z,1026.49
2016-11-12T00:50:17.009Z,1026.47
2016-11-12T00:51:17.613Z,1026.43
2016-11-12T00:52:18.235Z,1026.45
2016-11-12T00:53:18.851Z,1026.42
2016-11-12T00:54:19.463Z,1026.44
2016-11-12T00:55:20.067Z,1026.45
2016-11-12T00:56:20.777Z,1026.44
2016-11-12T00:57:21.415Z,1026.42
2016-11-12T00:58:22.027Z,1026.41
2016-11-12T00:59:22.638Z,1026.41
2016-11-12T01:00:23.244Z,1026.41
2016-11-12T01:01:23.892Z,1026.44
2016-11-12T01:02:24.514Z,1026.44
2016-11-12T01:03:25.125Z,1026.44
2016-11-12T01:04:25.724Z,1026.41
2016-11-12T01:05:26.353Z,1026.39
2016-11-12T01:06:26.954Z,1026.42
2016-11-12T01:07:27.573Z,1026.46
2016-11-12T01:08:28.175Z,1026.48
2016-11-12T01:09:28.778Z,1026.49
2016-11-12T01:10:29.380Z,1026.51
2016-11-12T01:11:30.034Z,1026.58
2016-11-12T01:12:30.649Z,1026.54
2016-11-12T01:13:31.263Z,1026.55
2016-11-12T01:14:31.883Z,1026.54
2016-11-12T01:15:32.499Z,1026.58
2016-11-12T01:16:33.106Z,1026.57
2016-11-12T01:17:33.714Z,1026.57
2016-11-12T01:18:34.328Z,1026.57
2016-11-12T01:19:34.952Z,1026.59
2016-11-12T01:20:35.624Z,1026.57
2016-11-12T01:21:36.257Z,1026.62
2016-11-12T01:22:36.875Z,1026.58
2016-11-12T01:23:37.490Z,1026.6
2016-11-12T01:24:38.149Z,1026.6
2016-11-12T01:25:38.756Z,1026.63
2016-11-12T01:26:39.359Z,1026.65
2016-11-12T01:27:39.968Z,1026.63
2016-11-12T01:28:40.598Z,1026.63
2016-11-12T01:29:41.224Z,1026.64
2016-11-12T01:30:41.865Z,1026.68
2016-11-12T01:31:42.468Z,1026.64
2016-11-12T01:32:43.085Z,1026.63
2016-11-12T01:33:43.702Z,1026.64
2016-11-12T01:34:44.336Z,1026.61
2016-11-12T01:35:44.949Z,1026.67
2016-11-12T01:36:45.566Z,1026.63
2016-11-12T01:37:46.190Z,1026.6
2016-11-12T01:38:46.822Z,1026.64
2016-11-12T01:39:47.447Z,1026.6
2016-11-12T01:40:48.067Z,1026.56
2016-11-12T01:41:48.673Z,1026.6
2016-11-12T01:42:49.299Z,1026.57
2016-11-12T01:43:49.911Z,1026.56
2016-11-12T01:44:50.527Z,1026.55
2016-11-12T01:45:51.133Z,1026.49
2016-11-12T01:46:51.751Z,1026.58
2016-11-12T01:47:52.369Z,1026.49
2016-11-12T01:48:52.980Z,1026.54
2016-11-12T01:49:53.587Z,1026.55
2016-11-12T01:50:54.198Z,1026.56
2016-11-12T01:51:54.823Z,1026.56
2016-11-12T01:52:55.459Z,1026.55
2016-11-12T01:53:56.076Z,1026.59
2016-11-12T01:54:56.692Z,1026.59
2016-11-12T01:55:57.299Z,1026.62
2016-11-12T01:56:57.933Z,1026.62
2016-11-12T01:57:58.551Z,1026.62
2016-11-12T01:58:59.147Z,1026.63
2016-11-12T01:59:59.760Z,1026.62
2016-11-12T02:01:00.360Z,1026.6
2016-11-12T02:02:00.969Z,1026.63
2016-11-12T02:03:01.598Z,1026.6
2016-11-12T02:04:02.205Z,1026.63
2016-11-12T02:05:02.821Z,1026.61
2016-11-12T02:06:03.428Z,1026.61
2016-11-12T02:07:04.039Z,1026.61
2016-11-12T02:08:04.638Z,1026.55
2016-11-12T02:09:05.245Z,1026.57
2016-11-12T02:10:05.872Z,1026.53
2016-11-12T02:11:06.508Z,1026.55
2016-11-12T02:12:07.164Z,1026.55
2016-11-12T02:13:07.814Z,1026.52
2016-11-12T02:14:08.434Z,1026.52
2016-11-12T02:15:09.057Z,1026.55
2016-11-12T02:16:09.668Z,1026.51
2016-11-12T02:17:10.274Z,1026.56
2016-11-12T02:18:10.920Z,1026.57
2016-11-12T02:19:11.542Z,1026.56
2016-11-12T02:20:12.188Z,1026.56
2016-11-12T02:21:12.806Z,1026.58
2016-11-12T02:22:13.412Z,1026.55
2016-11-12T02:23:14.055Z,1026.52
2016-11-12T02:24:14.654Z,1026.5
2016-11-12T02:25:15.267Z,1026.53
2016-11-12T02:26:15.877Z,1026.5
2016-11-12T02:27:16.496Z,1026.53
2016-11-12T02:28:17.113Z,1026.53
2016-11-12T02:29:17.720Z,1026.57
2016-11-12T02:30:18.317Z,1026.51
2016-11-12T02:31:18.935Z,1026.55
2016-11-12T02:32:19.540Z,1026.54
2016-11-12T02:33:20.157Z,1026.55
2016-11-12T02:34:20.755Z,1026.51
2016-11-12T02:35:21.384Z,1026.5
2016-11-12T02:36:21.997Z,1026.5
2016-11-12T02:37:22.612Z,1026.48
2016-11-12T02:38:23.218Z,1026.53
2016-11-12T02:39:23.833Z,1026.54
2016-11-12T02:40:24.469Z,1026.54
2016-11-12T02:41:25.077Z,1026.55
2016-11-12T02:42:25.690Z,1026.55
2016-11-12T02:43:26.338Z,1026.59
2016-11-12T02:44:26.956Z,1026.58
2016-11-12T02:45:27.566Z,1026.6
2016-11-12T02:46:28.176Z,1026.61
2016-11-12T02:47:28.835Z,1026.57
2016-11-12T02:48:29.442Z,1026.58
2016-11-12T02:49:30.089Z,1026.59
2016-11-12T02:50:30.711Z,1026.56
2016-11-12T02:51:38.172Z,1026.57
2016-11-12T02:52:38.795Z,1026.6
2016-11-12T02:53:39.405Z,1026.64
2016-11-12T02:54:40.115Z,1026.63
2016-11-12T02:55:40.727Z,1026.64
2016-11-12T02:56:41.350Z,1026.65
2016-11-12T02:57:41.968Z,1026.61
2016-11-12T02:58:42.568Z,1026.58
2016-11-12T02:59:43.215Z,1026.62
2016-11-12T03:00:43.819Z,1026.64
2016-11-12T03:01:44.443Z,1026.59
2016-11-12T03:02:45.052Z,1026.6
2016-11-12T03:03:45.719Z,1026.62
2016-11-12T03:04:46.344Z,1026.64
2016-11-12T03:05:46.959Z,1026.58
2016-11-12T03:06:47.563Z,1026.62
2016-11-12T03:07:48.177Z,1026.6
2016-11-12T03:08:48.785Z,1026.63
2016-11-12T03:09:49.405Z,1026.59
2016-11-12T03:10:50.020Z,1026.56
2016-11-12T03:11:50.634Z,1026.57
2016-11-12T03:12:51.243Z,1026.6
2016-11-12T03:13:51.866Z,1026.6
2016-11-12T03:14:52.472Z,1026.6
2016-11-12T03:15:53.086Z,1026.58
2016-11-12T03:16:53.693Z,1026.64
2016-11-12T03:17:54.314Z,1026.64
2016-11-12T03:18:54.930Z,1026.64
2016-11-12T03:19:55.551Z,1026.61
2016-11-12T03:20:56.154Z,1026.65
2016-11-12T03:21:56.779Z,1026.7
2016-11-12T03:22:57.405Z,1026.72
2016-11-12T03:23:58.012Z,1026.71
2016-11-12T03:24:58.621Z,1026.66
2016-11-12T03:25:59.244Z,1026.7
2016-11-12T03:26:59.847Z,1026.69
2016-11-12T03:28:00.470Z,1026.7
2016-11-12T03:29:01.081Z,1026.72
2016-11-12T03:30:01.699Z,1026.71
2016-11-12T03:31:02.351Z,1026.74
2016-11-12T03:32:02.977Z,1026.76
2016-11-12T03:33:03.593Z,1026.72
2016-11-12T03:34:04.215Z,1026.71
2016-11-12T03:35:04.836Z,1026.69
2016-11-12T03:36:05.456Z,1026.65
2016-11-12T03:37:06.099Z,1026.63
2016-11-12T03:38:06.714Z,1026.68
2016-11-12T03:39:07.322Z,1026.65
2016-11-12T03:40:07.949Z,1026.64
2016-11-12T03:41:08.579Z,1026.65
2016-11-12T03:42:09.191Z,1026.66
2016-11-12T03:43:09.819Z,1026.67
2016-11-12T03:44:10.425Z,1026.68
2016-11-12T03:45:11.038Z,1026.69
2016-11-12T03:46:11.651Z,1026.7
2016-11-12T03:47:12.264Z,1026.73
2016-11-12T03:48:12.889Z,1026.78
2016-11-12T03:49:13.527Z,1026.75
2016-11-12T03:50:14.133Z,1026.78
2016-11-12T03:51:14.754Z,1026.76
2016-11-12T03:52:15.369Z,1026.76
2016-11-12T03:53:15.969Z,1026.79
2016-11-12T03:54:16.577Z,1026.73
2016-11-12T03:55:17.298Z,1026.76
2016-11-12T03:56:17.919Z,1026.79
2016-11-12T03:57:18.535Z,1026.75
2016-11-12T03:58:19.186Z,1026.77
2016-11-12T03:59:19.802Z,1026.74
2016-11-12T04:00:20.401Z,1026.74
2016-11-12T04:01:21.003Z,1026.71
2016-11-12T04:02:21.615Z,1026.68
2016-11-12T04:03:22.241Z,1026.68
2016-11-12T04:04:22.844Z,1026.69
2016-11-12T04:05:23.465Z,1026.7
2016-11-12T04:06:24.080Z,1026.67
2016-11-12T04:07:24.704Z,1026.72
2016-11-12T04:08:25.314Z,1026.75
2016-11-12T04:09:25.928Z,1026.73
2016-11-12T04:10:26.567Z,1026.71
2016-11-12T04:11:27.174Z,1026.76
2016-11-12T04:12:27.792Z,1026.77
2016-11-12T04:13:28.396Z,1026.74
2016-11-12T04:14:28.990Z,1026.78
2016-11-12T04:15:29.609Z,1026.78
2016-11-12T04:16:30.214Z,1026.75
2016-11-12T04:17:30.827Z,1026.74
2016-11-12T04:18:31.433Z,1026.72
2016-11-12T04:19:32.050Z,1026.76
2016-11-12T04:20:32.657Z,1026.74
2016-11-12T04:21:33.273Z,1026.73
2016-11-12T04:22:33.900Z,1026.69
2016-11-12T04:23:34.538Z,1026.7
2016-11-12T04:24:35.144Z,1026.73
2016-11-12T04:25:35.787Z,1026.7
2016-11-12T04:26:36.404Z,1026.71
2016-11-12T04:27:37.025Z,1026.69
2016-11-12T04:28:37.649Z,1026.66
2016-11-12T04:29:38.267Z,1026.75
2016-11-12T04:30:38.889Z,1026.69
2016-11-12T04:31:39.504Z,1026.7
2016-11-12T04:32:40.128Z,1026.64
2016-11-12T04:33:40.749Z,1026.63
2016-11-12T04:34:41.368Z,1026.58
2016-11-12T04:35:41.971Z,1026.58
2016-11-12T04:36:42.578Z,1026.54
2016-11-12T04:37:43.182Z,1026.51
2016-11-12T04:38:43.791Z,1026.51
2016-11-12T04:39:44.406Z,1026.52
2016-11-12T04:40:45.029Z,1026.52
2016-11-12T04:41:45.639Z,1026.5
2016-11-12T04:42:46.256Z,1026.5
2016-11-12T04:43:46.861Z,1026.54
2016-11-12T04:44:47.476Z,1026.52
2016-11-12T04:45:48.080Z,1026.52
2016-11-12T04:46:48.698Z,1026.52
2016-11-12T04:47:49.310Z,1026.55
2016-11-12T04:48:49.918Z,1026.53
2016-11-12T04:49:50.532Z,1026.53
2016-11-12T04:50:51.139Z,1026.6
2016-11-12T04:51:51.774Z,1026.54
2016-11-12T04:52:52.386Z,1026.56
2016-11-12T04:53:53.006Z,1026.57
2016-11-12T04:54:53.629Z,1026.54
2016-11-12T04:55:54.233Z,1026.55
2016-11-12T04:56:54.854Z,1026.57
2016-11-12T04:57:55.475Z,1026.54
2016-11-12T04:58:56.104Z,1026.54
2016-11-12T04:59:56.711Z,1026.54
2016-11-12T05:00:57.320Z,1026.51
2016-11-12T05:01:57.918Z,1026.5
2016-11-12T05:02:58.539Z,1026.52
2016-11-12T05:03:59.158Z,1026.51
2016-11-12T05:04:59.777Z,1026.48
2016-11-12T05:06:00.381Z,1026.48
2016-11-12T05:07:00.987Z,1026.51
2016-11-12T05:08:01.608Z,1026.52
2016-11-12T05:09:02.225Z,1026.52
2016-11-12T05:10:02.841Z,1026.54
2016-11-12T05:11:03.448Z,1026.56
2016-11-12T05:12:04.050Z,1026.53
2016-11-12T05:13:04.661Z,1026.54
2016-11-12T05:14:05.263Z,1026.55
2016-11-12T05:15:05.881Z,1026.54
2016-11-12T05:16:06.502Z,1026.51
2016-11-12T05:17:07.113Z,1026.48
2016-11-12T05:18:07.735Z,1026.55
2016-11-12T05:19:08.333Z,1026.56
2016-11-12T05:20:08.948Z,1026.56
2016-11-12T05:21:09.570Z,1026.58
2016-11-12T05:22:10.177Z,1026.58
2016-11-12T05:23:10.809Z,1026.58
2016-11-12T05:24:11.432Z,1026.6
2016-11-12T05:25:12.044Z,1026.59
2016-11-12T05:26:12.647Z,1026.67
2016-11-12T05:27:13.261Z,1026.71
2016-11-12T05:28:13.878Z,1026.72
2016-11-12T05:29:14.504Z,1026.71
2016-11-12T05:30:15.104Z,1026.71
2016-11-12T05:31:15.726Z,1026.69
2016-11-12T05:32:16.340Z,1026.72
2016-11-12T05:33:16.945Z,1026.76
2016-11-12T05:34:17.575Z,1026.78
2016-11-12T05:35:18.275Z,1026.76
2016-11-12T05:36:18.900Z,1026.79
2016-11-12T05:37:19.535Z,1026.77
2016-11-12T05:38:20.139Z,1026.79
2016-11-12T05:39:20.757Z,1026.77
2016-11-12T05:40:21.409Z,1026.77
2016-11-12T05:41:22.024Z,1026.79
2016-11-12T05:42:22.640Z,1026.79
2016-11-12T05:43:23.244Z,1026.81
2016-11-12T05:44:23.856Z,1026.8
2016-11-12T05:45:24.462Z,1026.8
2016-11-12T05:46:25.067Z,1026.77
2016-11-12T05:47:25.681Z,1026.74
2016-11-12T05:48:26.296Z,1026.71
2016-11-12T05:49:26.906Z,1026.73
2016-11-12T05:50:27.509Z,1026.72
2016-11-12T05:51:28.125Z,1026.74
2016-11-12T05:52:28.748Z,1026.75
2016-11-12T05:53:29.354Z,1026.74
2016-11-12T05:54:29.973Z,1026.75
2016-11-12T05:55:30.599Z,1026.75
2016-11-12T05:56:31.219Z,1026.72
2016-11-12T05:57:31.837Z,1026.81
2016-11-12T05:58:32.449Z,1026.81
2016-11-12T05:59:33.069Z,1026.8
2016-11-12T06:00:33.850Z,1026.79
2016-11-12T06:01:34.585Z,1026.84
2016-11-12T06:02:35.306Z,1026.85
2016-11-12T06:03:36.093Z,1026.89
2016-11-12T06:04:36.820Z,1026.86
2016-11-12T06:05:37.557Z,1026.92
2016-11-12T06:06:38.312Z,1026.9
2016-11-12T06:07:39.059Z,1026.88
2016-11-12T06:08:39.756Z,1026.89
2016-11-12T06:09:40.418Z,1026.88
2016-11-12T06:10:41.213Z,1026.91
2016-11-12T06:11:41.984Z,1026.83
2016-11-12T06:12:42.707Z,1026.88
2016-11-12T06:13:43.332Z,1026.86
2016-11-12T06:14:43.993Z,1026.84
2016-11-12T06:15:44.613Z,1026.88
2016-11-12T06:16:45.226Z,1026.89
2016-11-12T06:17:45.830Z,1026.93
2016-11-12T06:18:46.453Z,1026.94
2016-11-12T06:19:47.080Z,1026.93
2016-11-12T06:20:47.697Z,1026.96
2016-11-12T06:21:48.315Z,1026.97
2016-11-12T06:22:48.952Z,1026.95
2016-11-12T06:23:49.586Z,1026.93
2016-11-12T06:24:50.202Z,1026.88
2016-11-12T06:25:50.901Z,1026.92
2016-11-12T06:26:51.526Z,1026.88
2016-11-12T06:27:52.144Z,1026.94
2016-11-12T06:28:52.779Z,1026.87
2016-11-12T06:29:53.396Z,1026.93
2016-11-12T06:30:54.015Z,1026.88
2016-11-12T06:31:54.649Z,1026.88
2016-11-12T06:32:55.351Z,1026.87
2016-11-12T06:33:56.018Z,1026.88
2016-11-12T06:34:56.638Z,1026.92
2016-11-12T06:35:57.259Z,1026.91
2016-11-12T06:36:57.895Z,1026.92
2016-11-12T06:37:58.522Z,1026.98
2016-11-12T06:38:59.179Z,1026.98
2016-11-12T06:39:59.857Z,1027.04
2016-11-12T06:41:00.490Z,1027.02
2016-11-12T06:42:01.102Z,1027.05
2016-11-12T06:43:01.722Z,1027.06
2016-11-12T06:44:02.347Z,1027.05
2016-11-12T06:45:02.964Z,1027.06
2016-11-12T06:46:03.678Z,1027.06
2016-11-12T06:47:04.324Z,1027.06
2016-11-12T06:48:04.965Z,1027.08
2016-11-12T06:49:05.586Z,1027.09
2016-11-12T06:50:06.215Z,1027.08
2016-11-12T06:51:06.848Z,1027.07
2016-11-12T06:52:07.478Z,1027.06
2016-11-12T06:53:08.116Z,1027.09
2016-11-12T06:54:08.729Z,1027.05
2016-11-12T06:55:09.334Z,1027.07
2016-11-12T06:56:09.944Z,1027.08
2016-11-12T06:57:10.561Z,1027.09
2016-11-12T06:58:11.204Z,1027.08
2016-11-12T06:59:11.824Z,1027.12
2016-11-12T07:00:12.445Z,1027.13
2016-11-12T07:01:13.060Z,1027.13
2016-11-12T07:02:13.702Z,1027.17
2016-11-12T07:03:14.339Z,1027.16
2016-11-12T07:04:14.973Z,1027.14
2016-11-12T07:05:15.603Z,1027.16
2016-11-12T07:06:16.231Z,1027.14
2016-11-12T07:07:16.856Z,1027.17
2016-11-12T07:08:17.493Z,1027.15
2016-11-12T07:09:18.126Z,1027.15
2016-11-12T07:10:18.735Z,1027.15
2016-11-12T07:11:19.381Z,1027.17
2016-11-12T07:12:19.992Z,1027.14
2016-11-12T07:13:20.634Z,1027.14
2016-11-12T07:14:21.249Z,1027.16
2016-11-12T07:15:21.876Z,1027.15
2016-11-12T07:16:22.485Z,1027.15
2016-11-12T07:17:23.118Z,1027.15
2016-11-12T07:18:23.736Z,1027.09
2016-11-12T07:19:24.357Z,1027.13
2016-11-12T07:20:24.975Z,1027.1
2016-11-12T07:21:25.598Z,1027.15
2016-11-12T07:22:26.215Z,1027.13
2016-11-12T07:23:26.836Z,1027.15
2016-11-12T07:24:27.440Z,1027.17
2016-11-12T07:25:28.054Z,1027.17
2016-11-12T07:26:28.661Z,1027.18
2016-11-12T07:27:29.274Z,1027.18
2016-11-12T07:28:29.905Z,1027.16
2016-11-12T07:29:30.512Z,1027.19
2016-11-12T07:30:31.117Z,1027.19
2016-11-12T07:31:31.728Z,1027.23
2016-11-12T07:32:32.336Z,1027.22
2016-11-12T07:33:32.952Z,1027.26
2016-11-12T07:34:33.572Z,1027.22
2016-11-12T07:35:34.194Z,1027.2
2016-11-12T07:36:34.803Z,1027.24
2016-11-12T07:37:35.447Z,1027.27
2016-11-12T07:38:36.064Z,1027.28
2016-11-12T07:39:36.688Z,1027.3
2016-11-12T07:40:37.324Z,1027.32
2016-11-12T07:41:37.927Z,1027.36
2016-11-12T07:42:38.559Z,1027.32
2016-11-12T07:43:39.172Z,1027.38
2016-11-12T07:44:39.785Z,1027.37
2016-11-12T07:45:40.435Z,1027.39
2016-11-12T07:46:41.043Z,1027.39
2016-11-12T07:47:41.659Z,1027.41
2016-11-12T07:48:42.274Z,1027.39
2016-11-12T07:49:42.896Z,1027.38
2016-11-12T07:50:43.527Z,1027.38
2016-11-12T07:51:44.153Z,1027.36
2016-11-12T07:52:44.778Z,1027.37
2016-11-12T07:53:45.421Z,1027.4
2016-11-12T07:54:46.048Z,1027.34
2016-11-12T07:55:46.663Z,1027.34
2016-11-12T07:56:47.281Z,1027.32
2016-11-12T07:57:47.899Z,1027.32
2016-11-12T07:58:48.551Z,1027.35
2016-11-12T07:59:49.169Z,1027.37
2016-11-12T08:00:49.793Z,1027.43
2016-11-12T08:01:50.406Z,1027.39
2016-11-12T08:02:51.027Z,1027.35
2016-11-12T08:03:51.665Z,1027.38
2016-11-12T08:04:52.289Z,1027.46
2016-11-12T08:05:52.925Z,1027.37
2016-11-12T08:06:53.560Z,1027.41
2016-11-12T08:07:54.188Z,1027.41
2016-11-12T08:08:54.821Z,1027.35
2016-11-12T08:09:55.452Z,1027.43
2016-11-12T08:10:56.074Z,1027.4
2016-11-12T08:11:56.691Z,1027.39
2016-11-12T08:12:57.319Z,1027.35
2016-11-12T08:13:57.936Z,1027.38
2016-11-12T08:14:58.547Z,1027.42
2016-11-12T08:15:59.176Z,1027.35
2016-11-12T08:16:59.796Z,1027.32
2016-11-12T08:18:00.410Z,1027.36
2016-11-12T08:19:01.041Z,1027.34
2016-11-12T08:20:01.650Z,1027.38
2016-11-12T08:21:02.306Z,1027.38
2016-11-12T08:22:03.030Z,1027.38
2016-11-12T08:23:03.634Z,1027.39
2016-11-12T08:24:04.248Z,1027.34
2016-11-12T08:25:04.866Z,1027.36
2016-11-12T08:26:05.476Z,1027.38
2016-11-12T08:27:06.096Z,1027.4
2016-11-12T08:28:06.726Z,1027.47
2016-11-12T08:29:07.349Z,1027.45
2016-11-12T08:30:07.971Z,1027.46
2016-11-12T08:31:08.594Z,1027.48
2016-11-12T08:32:09.218Z,1027.49
2016-11-12T08:33:09.846Z,1027.43
2016-11-12T08:34:10.466Z,1027.38
2016-11-12T08:35:11.088Z,1027.44
2016-11-12T08:36:11.698Z,1027.45
2016-11-12T08:37:12.332Z,1027.44
2016-11-12T08:38:12.947Z,1027.47
2016-11-12T08:39:13.570Z,1027.48
2016-11-12T08:40:14.176Z,1027.48
2016-11-12T08:41:14.797Z,1027.48
2016-11-12T08:42:15.437Z,1027.53
2016-11-12T08:43:16.050Z,1027.52
2016-11-12T08:44:16.662Z,1027.55
2016-11-12T08:45:17.297Z,1027.55
2016-11-12T08:46:17.913Z,1027.53
2016-11-12T08:47:18.567Z,1027.58
2016-11-12T08:48:19.198Z,1027.56
2016-11-12T08:49:19.825Z,1027.56
2016-11-12T08:50:20.444Z,1027.51
2016-11-12T08:51:21.059Z,1027.56
2016-11-12T08:52:21.685Z,1027.46
2016-11-12T08:53:22.312Z,1027.48
2016-11-12T08:54:22.950Z,1027.46
2016-11-12T08:55:23.565Z,1027.46
2016-11-12T08:56:24.172Z,1027.42
2016-11-12T08:57:24.792Z,1027.45
2016-11-12T08:58:25.400Z,1027.42
2016-11-12T08:59:26.029Z,1027.49
2016-11-12T09:00:26.653Z,1027.4
2016-11-12T09:01:27.275Z,1027.44
2016-11-12T09:02:27.937Z,1027.43
2016-11-12T09:03:28.523Z,1027.46
2016-11-12T09:04:29.135Z,1027.45
2016-11-12T09:05:29.757Z,1027.5
2016-11-12T09:06:30.375Z,1027.5
2016-11-12T09:07:30.991Z,1027.52
2016-11-12T09:08:31.620Z,1027.5
2016-11-12T09:09:32.248Z,1027.46
2016-11-12T09:10:32.865Z,1027.48
2016-11-12T09:11:33.480Z,1027.47
2016-11-12T09:12:34.102Z,1027.45
2016-11-12T09:13:34.749Z,1027.48
2016-11-12T09:14:35.358Z,1027.46
2016-11-12T09:15:35.975Z,1027.46
2016-11-12T09:16:36.604Z,1027.42
2016-11-12T09:17:37.227Z,1027.43
2016-11-12T09:18:37.835Z,1027.47
2016-11-12T09:19:38.450Z,1027.49
2016-11-12T09:20:39.074Z,1027.47
2016-11-12T09:21:39.707Z,1027.48
2016-11-12T09:22:40.308Z,1027.49
2016-11-12T09:23:40.931Z,1027.5
2016-11-12T09:24:41.544Z,1027.52
2016-11-12T09:25:42.157Z,1027.48
2016-11-12T09:26:42.782Z,1027.44
2016-11-12T09:27:43.448Z,1027.4
2016-11-12T09:28:44.038Z,1027.41
2016-11-12T09:29:44.679Z,1027.43
2016-11-12T09:30:45.306Z,1027.46
2016-11-12T09:31:45.981Z,1027.42
2016-11-12T09:32:46.622Z,1027.42
2016-11-12T09:33:47.261Z,1027.41
2016-11-12T09:34:47.872Z,1027.48
2016-11-12T09:35:48.489Z,1027.43
2016-11-12T09:36:49.111Z,1027.47
2016-11-12T09:37:49.736Z,1027.43
2016-11-12T09:38:50.350Z,1027.49
2016-11-12T09:39:50.958Z,1027.49
2016-11-12T09:40:51.579Z,1027.48
2016-11-12T09:41:52.194Z,1027.53
2016-11-12T09:42:52.815Z,1027.53
2016-11-12T09:43:53.441Z,1027.53
2016-11-12T09:44:54.060Z,1027.51
2016-11-12T09:45:54.669Z,1027.49
2016-11-12T09:46:55.282Z,1027.52
2016-11-12T09:47:55.918Z,1027.5
2016-11-12T09:48:56.516Z,1027.49
2016-11-12T09:49:57.182Z,1027.54
2016-11-12T09:50:57.800Z,1027.55
2016-11-12T09:51:58.441Z,1027.54
2016-11-12T09:52:59.057Z,1027.55
2016-11-12T09:53:59.687Z,1027.54
2016-11-12T09:55:00.304Z,1027.51
2016-11-12T09:56:00.912Z,1027.51
2016-11-12T09:57:01.532Z,1027.52
2016-11-12T09:58:02.156Z,1027.53
2016-11-12T09:59:02.814Z,1027.51
2016-11-12T10:00:03.488Z,1027.51
2016-11-12T10:01:04.135Z,1027.53
2016-11-12T10:02:04.768Z,1027.55
2016-11-12T10:03:05.378Z,1027.57
2016-11-12T10:04:05.989Z,1027.59
2016-11-12T10:05:06.614Z,1027.57
2016-11-12T10:06:07.265Z,1027.62
2016-11-12T10:07:07.883Z,1027.61
2016-11-12T10:08:08.502Z,1027.59
2016-11-12T10:09:09.125Z,1027.55
2016-11-12T10:10:09.744Z,1027.56
2016-11-12T10:11:10.371Z,1027.58
2016-11-12T10:12:11.008Z,1027.54
2016-11-12T10:13:11.640Z,1027.57
2016-11-12T10:14:12.258Z,1027.56
2016-11-12T10:15:12.933Z,1027.54
2016-11-12T10:16:13.607Z,1027.5
2016-11-12T10:17:14.257Z,1027.51
2016-11-12T10:18:14.878Z,1027.45
2016-11-12T10:19:15.509Z,1027.48
2016-11-12T10:20:16.131Z,1027.43
2016-11-12T10:21:16.790Z,1027.42
2016-11-12T10:22:17.416Z,1027.39
2016-11-12T10:23:18.159Z,1027.42
2016-11-12T10:24:18.796Z,1027.4
2016-11-12T10:25:19.414Z,1027.39
2016-11-12T10:26:20.040Z,1027.42
2016-11-12T10:27:20.655Z,1027.44
2016-11-12T10:28:21.296Z,1027.43
2016-11-12T10:29:21.915Z,1027.39
2016-11-12T10:30:22.544Z,1027.46
2016-11-12T10:31:23.164Z,1027.42
2016-11-12T10:32:23.798Z,1027.41
2016-11-12T10:33:24.430Z,1027.44
2016-11-12T10:34:25.041Z,1027.44
2016-11-12T10:35:25.654Z,1027.45
2016-11-12T10:36:26.284Z,1027.48
2016-11-12T10:37:26.907Z,1027.47
2016-11-12T10:38:27.523Z,1027.5
2016-11-12T10:39:28.253Z,1027.51
2016-11-12T10:40:28.877Z,1027.51
2016-11-12T10:41:29.507Z,1027.48
2016-11-12T10:42:30.117Z,1027.48
2016-11-12T10:43:30.818Z,1027.48
2016-11-12T10:44:31.486Z,1027.48
2016-11-12T10:45:32.115Z,1027.51
2016-11-12T10:46:32.740Z,1027.49
2016-11-12T10:47:33.364Z,1027.5
2016-11-12T10:48:34.024Z,1027.53
2016-11-12T10:49:34.720Z,1027.52
2016-11-12T10:50:35.423Z,1027.55
2016-11-12T10:51:36.038Z,1027.5
2016-11-12T10:52:36.667Z,1027.51
2016-11-12T10:53:37.291Z,1027.48
2016-11-12T10:54:37.906Z,1027.48
2016-11-12T10:55:38.524Z,1027.49
2016-11-12T10:56:39.160Z,1027.5
2016-11-12T10:57:39.781Z,1027.46
2016-11-12T10:58:40.399Z,1027.5
2016-11-12T10:59:41.019Z,1027.47
2016-11-12T11:00:41.678Z,1027.46
2016-11-12T11:01:42.313Z,1027.5
2016-11-12T11:02:42.924Z,1027.49
2016-11-12T11:03:43.593Z,1027.45
2016-11-12T11:04:44.247Z,1027.48
2016-11-12T11:05:44.899Z,1027.5
2016-11-12T11:06:45.516Z,1027.48
2016-11-12T11:07:46.132Z,1027.48
2016-11-12T11:08:46.766Z,1027.56
2016-11-12T11:09:47.385Z,1027.54
2016-11-12T11:10:48.001Z,1027.51
2016-11-12T11:11:48.619Z,1027.51
2016-11-12T11:12:49.254Z,1027.59
2016-11-12T11:13:49.917Z,1027.57
2016-11-12T11:14:50.525Z,1027.53
2016-11-12T11:15:51.172Z,1027.53
2016-11-12T11:16:51.817Z,1027.53
2016-11-12T11:17:52.453Z,1027.48
2016-11-12T11:18:53.069Z,1027.52
2016-11-12T11:19:53.680Z,1027.52
2016-11-12T11:20:54.309Z,1027.47
2016-11-12T11:21:54.955Z,1027.46
2016-11-12T11:22:55.610Z,1027.51
2016-11-12T11:23:56.226Z,1027.54
2016-11-12T11:24:56.836Z,1027.52
2016-11-12T11:25:57.450Z,1027.48
2016-11-12T11:26:58.118Z,1027.52
2016-11-12T11:27:58.779Z,1027.49
2016-11-12T11:28:59.477Z,1027.52
2016-11-12T11:30:00.122Z,1027.48
2016-11-12T11:31:00.728Z,1027.48
2016-11-12T11:32:01.343Z,1027.48
2016-11-12T11:33:01.968Z,1027.49
2016-11-12T11:34:02.592Z,1027.5
2016-11-12T11:35:03.204Z,1027.53
2016-11-12T11:36:03.833Z,1027.44
2016-11-12T11:37:04.452Z,1027.41
2016-11-12T11:38:05.102Z,1027.4
2016-11-12T11:39:05.738Z,1027.4
2016-11-12T11:40:06.358Z,1027.41
2016-11-12T11:41:06.973Z,1027.37
2016-11-12T11:42:07.591Z,1027.36
2016-11-12T11:43:08.223Z,1027.34
2016-11-12T11:44:08.839Z,1027.35
2016-11-12T11:45:09.453Z,1027.36
2016-11-12T11:46:10.069Z,1027.37
2016-11-12T11:47:10.713Z,1027.35
2016-11-12T11:48:11.336Z,1027.33
2016-11-12T11:49:11.942Z,1027.36
2016-11-12T11:50:12.594Z,1027.32
2016-11-12T11:51:13.271Z,1027.34
2016-11-12T11:52:13.960Z,1027.27
2016-11-12T11:53:14.645Z,1027.26
2016-11-12T11:54:15.400Z,1027.26
2016-11-12T11:55:16.153Z,1027.26
2016-11-12T11:56:16.888Z,1027.19
2016-11-12T11:57:17.670Z,1027.21
2016-11-12T11:58:18.308Z,1027.18
2016-11-12T11:59:18.980Z,1027.16
2016-11-12T12:00:19.694Z,1027.12
2016-11-12T12:01:20.396Z,1027.18
2016-11-12T12:02:21.074Z,1027.19
2016-11-12T12:03:21.753Z,1027.14
2016-11-12T12:04:22.434Z,1027.15
2016-11-12T12:05:23.283Z,1027.17
2016-11-12T12:06:24.089Z,1027.16
2016-11-12T12:07:24.773Z,1027.12
2016-11-12T12:08:25.501Z,1027.18
2016-11-12T12:09:26.366Z,1027.1
2016-11-12T12:10:27.176Z,1027.03
2016-11-12T12:11:28.092Z,1027.07
2016-11-12T12:12:28.823Z,1027.04
2016-11-12T12:13:29.522Z,1027.05
2016-11-12T12:14:30.348Z,1026.99
2016-11-12T12:15:31.133Z,1026.98